Latest Weather Observations for Mount Gambier

IDS60801

Issued at 9:01 am CST Saturday 9 May 2026 (issued every 10 minutes, with the page automatically refreshed every 10 minutes)

About weather observations | Map of weather stations | Latest weather observations for SA | Other Formats
Station Details ID: 026021 Name: MOUNT GAMBIER AERO Lat: -37.75 Lon: 140.77 Height: 63.0 m
Data from the previous 72 hours. | See also: Recent months at Mount Gambier
Date/Time
CST
Temp
°C
App
Temp
°C
Dew
Point
°C
Rel
Hum
%
Delta-T
°C
Wind Press
QNH
hPa
Press
MSL
hPa
Rain since
9am
mm
Dir  Spd
km/h
Gust
km/h
Spd
kts
Gust
kts
09/09:00am 12.9 11.6 12.4 97 0.3 SSW 11 13 6 7 1030.3 1030.3 3.0
09/08:30am 12.6 10.8 12.1 97 0.3 S 13 15 7 8 1030.2 1030.2 3.0
09/08:00am 12.4 10.9 11.9 97 0.3 SSW 11 13 6 7 1029.9 1029.9 3.0
09/07:30am 12.1 10.5 11.6 97 0.3 SSW 11 15 6 8 1029.7 1029.7 3.0
09/07:19am 12.1 10.5 11.6 97 0.3 SSW 11 13 6 7 1029.6 1029.6 3.0
09/07:00am 12.1 10.9 11.6 97 0.3 SW 9 13 5 7 1029.4 1029.4 2.8
09/06:30am 12.1 10.9 11.6 97 0.3 SW 9 13 5 7 1029.2 1029.2 2.6
09/06:00am 12.0 10.8 11.5 97 0.3 SW 9 11 5 6 1029.0 1029.0 2.4
09/05:45am 12.0 10.8 11.5 97 0.3 WSW 9 13 5 7 1028.9 1028.9 2.4
09/05:30am 12.0 10.8 11.5 97 0.3 SSW 9 11 5 6 1028.8 1028.8 2.4
09/05:23am 12.0 11.1 11.5 97 0.3 SSW 7 9 4 5 1028.8 1028.8 2.4
09/05:00am 11.9 10.3 11.4 97 0.3 SSW 11 15 6 8 1028.6 1028.6 2.4
09/04:59am 11.9 10.3 11.4 97 0.3 SSW 11 15 6 8 1028.6 1028.6 2.4
09/04:30am 11.8 10.5 11.3 97 0.3 SW 9 13 5 7 1028.4 1028.4 2.4
09/04:07am 11.9 9.9 11.4 97 0.3 SSW 13 15 7 8 1028.3 1028.3 2.4
09/04:00am 11.8 9.7 11.3 97 0.3 SSW 13 15 7 8 1028.3 1028.3 2.4
09/03:58am 11.9 9.9 11.4 97 0.3 SSW 13 15 7 8 1028.2 1028.2 2.4
09/03:30am 12.1 10.1 11.6 97 0.3 SW 13 15 7 8 1028.2 1028.2 2.4
09/03:16am 12.2 10.6 11.7 97 0.3 SW 11 15 6 8 1028.1 1028.1 2.4
09/03:05am 12.3 10.4 11.8 97 0.3 SSW 13 17 7 9 1028.2 1028.2 2.4
09/03:00am 12.3 10.4 11.8 97 0.3 SSW 13 17 7 9 1028.2 1028.2 2.2
09/02:47am 12.3 10.4 11.8 97 0.3 SW 13 15 7 8 1028.2 1028.2 2.2
09/02:30am 12.2 11.0 11.7 97 0.3 SW 9 11 5 6 1028.3 1028.3 2.2
09/02:00am 12.1 10.9 11.6 97 0.3 WSW 9 11 5 6 1028.4 1028.4 2.0
09/01:33am 11.9 10.6 11.4 97 0.3 WSW 9 11 5 6 1028.4 1028.4 2.0
09/01:30am 11.9 10.2 11.3 96 0.3 WSW 11 13 6 7 1028.4 1028.4 2.0
09/01:27am 11.9 10.6 11.3 96 0.3 WSW 9 13 5 7 1028.4 1028.4 2.0
09/01:09am 11.9 10.6 11.3 96 0.3 WSW 9 13 5 7 1028.4 1028.4 2.0
09/01:00am 11.9 10.6 11.3 96 0.3 WSW 9 13 5 7 1028.4 1028.4 1.8
09/12:30am 12.1 10.9 11.5 96 0.3 SW 9 11 5 6 1028.3 1028.3 1.8
09/12:00am 12.3 10.7 11.7 96 0.3 SW 11 13 6 7 1028.3 1028.3 1.8
 
Date/Time
CST
Temp
°C
App
Temp
°C
Dew
Point
°C
Rel
Hum
%
Delta-T
°C
Wind Press
QNH
hPa
Press
MSL
hPa
Rain since
9am
mm
Dir  Spd
km/h
Gust
km/h
Spd
kts
Gust
kts
08/11:30pm 12.3 10.7 11.7 96 0.3 SW 11 15 6 8 1028.4 1028.4 1.8
08/11:22pm 12.2 10.2 11.6 96 0.3 SW 13 17 7 9 1028.4 1028.4 1.8
08/11:00pm 12.3 9.6 11.7 96 0.3 SSW 17 26 9 14 1028.5 1028.5 1.6
08/10:56pm 12.3 9.6 11.7 96 0.3 SSW 17 26 9 14 1028.5 1028.5 1.6
08/10:30pm 12.4 10.1 11.8 96 0.3 SSW 15 22 8 12 1028.5 1028.5 1.6
08/10:18pm 12.4 10.5 11.8 96 0.3 SW 13 17 7 9 1028.6 1028.6 1.6
08/10:00pm 12.5 10.2 11.9 96 0.3 SSW 15 20 8 11 1028.7 1028.7 1.6
08/09:38pm 12.6 9.6 12.0 96 0.3 SSW 19 24 10 13 1028.8 1028.8 1.6
08/09:30pm 12.6 10.0 12.0 96 0.3 SSW 17 24 9 13 1028.7 1028.7 1.6
08/09:19pm 12.7 10.5 12.1 96 0.3 SSW 15 20 8 11 1028.6 1028.6 1.6
08/09:00pm 12.6 9.4 12.0 96 0.3 SW 20 26 11 14 1028.6 1028.6 1.6
08/08:48pm 12.6 10.4 12.0 96 0.3 SW 15 20 8 11 1028.6 1028.6 1.6
08/08:31pm 12.7 10.5 12.1 96 0.3 SW 15 22 8 12 1028.7 1028.7 1.6
08/08:30pm 12.7 10.5 12.1 96 0.3 SW 15 22 8 12 1028.6 1028.6 1.6
08/08:23pm 12.6 10.8 12.0 96 0.3 SW 13 19 7 10 1028.5 1028.5 1.6
08/08:06pm 12.8 10.6 12.2 96 0.3 SW 15 30 8 16 1028.5 1028.5 1.6
08/08:00pm 12.7 10.9 12.1 96 0.3 SW 13 17 7 9 1028.4 1028.4 1.4
08/07:30pm 12.6 10.8 12.0 96 0.3 SW 13 19 7 10 1028.4 1028.4 1.4
08/07:00pm 12.7 10.5 12.1 96 0.3 SW 15 20 8 11 1028.2 1028.2 1.4
08/06:55pm 12.6 9.9 11.8 95 0.4 SW 17 24 9 13 1028.2 1028.2 1.4
08/06:30pm 12.6 10.3 11.8 95 0.4 SW 15 20 8 11 1028.0 1028.0 1.4
08/06:10pm 12.5 10.2 11.7 95 0.4 SW 15 22 8 12 1027.9 1027.9 1.4
08/06:00pm 12.7 10.1 11.9 95 0.4 SW 17 26 9 14 1027.8 1027.8 1.4
08/05:49pm 12.7 10.1 11.9 95 0.4 SW 17 22 9 12 1027.8 1027.8 1.4
08/05:37pm 12.7 9.7 11.9 95 0.4 SW 19 26 10 14 1027.8 1027.8 1.4
08/05:30pm 12.8 10.2 12.0 95 0.4 SW 17 22 9 12 1027.7 1027.7 1.4
08/05:05pm 13.0 10.5 12.2 95 0.4 SW 17 24 9 13 1027.7 1027.7 1.2
08/05:00pm 13.0 10.1 12.2 95 0.4 SW 19 28 10 15 1027.7 1027.7 1.2
08/04:30pm 13.1 10.2 12.2 94 0.5 SW 19 26 10 14 1027.5 1027.5 1.2
08/04:26pm 13.1 10.2 12.2 94 0.5 WSW 19 24 10 13 1027.5 1027.5 1.2
08/04:00pm 13.5 10.7 12.6 94 0.5 SW 19 28 10 15 1027.4 1027.4 1.2
08/03:47pm 13.6 10.8 12.5 93 0.6 SW 19 26 10 14 1027.2 1027.2 1.2
08/03:42pm 13.6 10.8 12.7 94 0.5 SW 19 28 10 15 1027.2 1027.2 1.2
08/03:30pm 13.4 9.2 12.3 93 0.6 SSW 26 35 14 19 1027.2 1027.2 1.2
08/03:25pm 13.4 9.2 12.3 93 0.6 SSW 26 35 14 19 1027.3 1027.3 1.0
08/03:00pm 13.8 10.8 12.7 93 0.6 SW 20 26 11 14 1027.3 1027.3 0.6
08/02:58pm 13.7 10.7 12.6 93 0.6 SW 20 28 11 15 1027.3 1027.3 0.6
08/02:56pm 13.8 10.5 12.7 93 0.6 SW 22 30 12 16 1027.3 1027.3 0.6
08/02:53pm 13.6 10.2 12.5 93 0.6 SW 22 30 12 16 1027.3 1027.3 0.6
08/02:30pm 13.7 9.5 12.3 91 0.8 SSW 26 33 14 18 1027.2 1027.2 0.6
08/02:28pm 13.7 10.2 12.1 90 0.9 SSW 22 33 12 18 1027.2 1027.2 0.6
08/02:20pm 14.3 11.5 12.7 90 0.9 SW 19 26 10 14 1027.1 1027.1 0.6
08/02:09pm 13.9 8.4 11.8 87 1.1 SSW 32 43 17 23 1027.1 1027.1 0.6
08/02:00pm 15.2 11.5 11.6 79 1.9 SSW 22 32 12 17 1026.9 1026.9 0.2
08/01:48pm 14.8 10.4 11.8 82 1.6 SW 26 37 14 20 1027.0 1027.0 0.2
08/01:37pm 14.3 9.9 11.8 85 1.3 SW 26 37 14 20 1027.0 1027.0 0.2
08/01:30pm 14.5 10.0 11.5 82 1.6 SW 26 37 14 20 1027.1 1027.1 0.2
08/01:00pm 15.2 10.8 12.9 86 1.3 SW 28 43 15 23 1027.1 1027.1 0.2
08/12:36pm 14.5 10.7 12.4 87 1.1 SW 24 32 13 17 1027.3 1027.3 0.2
08/12:32pm 14.1 10.2 12.0 87 1.1 SW 24 33 13 18 1027.4 1027.4 0.2
08/12:30pm 14.5 10.7 12.5 88 1.1 SW 24 33 13 18 1027.4 1027.4 0.2
08/12:15pm 14.0 9.9 12.6 91 0.8 SW 26 35 14 19 1027.6 1027.6 0.2
08/12:00pm 13.6 8.5 11.8 89 1.0 SW 30 48 16 26 1027.8 1027.8 0.2
08/11:56am 14.1 9.4 12.1 88 1.1 SW 28 48 15 26 1027.8 1027.8 0.2
08/11:44am 13.9 9.7 12.3 90 0.9 SW 26 37 14 20 1027.8 1027.8 0.2
08/11:30am 13.7 9.9 12.3 91 0.8 SW 24 35 13 19 1027.8 1027.8 0.2
08/11:28am 13.5 8.8 11.9 90 0.9 SW 28 37 15 20 1027.9 1027.9 0.2
08/11:21am 13.6 8.8 11.8 89 1.0 SW 28 39 15 21 1027.9 1027.9 0.0
08/11:13am 13.9 9.7 12.3 90 0.9 SW 26 33 14 18 1027.9 1027.9 0.0
08/11:00am 13.3 7.1 11.4 88 1.0 SW 35 48 19 26 1027.9 1027.9 0.0
08/10:52am 14.4 9.3 11.9 85 1.4 SW 30 48 16 26 1027.8 1027.8 0.0
08/10:30am 14.3 10.5 12.3 88 1.1 SW 24 32 13 17 1027.7 1027.7 0.0
08/10:27am 13.9 10.4 12.1 89 1.0 SW 22 30 12 16 1027.7 1027.7 0.0
08/10:00am 13.2 8.8 11.8 91 0.7 SW 26 33 14 18 1027.6 1027.6 0.0
08/09:30am 13.2 9.2 11.9 92 0.7 SW 24 33 13 18 1027.5 1027.5 0.0
08/09:00am 12.8 8.8 11.9 94 0.5 SW 24 33 13 18 1027.7 1027.7 3.0
08/08:30am 12.3 7.8 11.5 95 0.4 SW 26 35 14 19 1027.8 1027.8 2.8
08/08:27am 12.3 8.2 11.5 95 0.4 SW 24 33 13 18 1027.7 1027.7 2.8
08/08:09am 12.0 7.8 11.2 95 0.4 SW 24 32 13 17 1027.6 1027.6 2.8
08/08:00am 12.0 7.8 11.1 94 0.5 SW 24 37 13 20 1027.5 1027.5 2.8
08/07:54am 11.9 7.7 11.0 94 0.5 SW 24 37 13 20 1027.4 1027.4 2.8
08/07:41am 11.9 7.7 11.0 94 0.5 SW 24 37 13 20 1027.2 1027.2 2.8
08/07:30am 11.9 7.7 11.0 94 0.5 SW 24 30 13 16 1027.1 1027.1 2.8
08/07:28am 11.9 7.7 11.0 94 0.5 SW 24 30 13 16 1027.0 1027.0 2.8
08/07:10am 11.9 8.4 10.8 93 0.6 WSW 20 30 11 16 1026.7 1026.7 2.6
08/07:00am 11.9 8.5 10.6 92 0.7 WSW 19 28 10 15 1026.5 1026.5 2.6
08/06:57am 12.0 8.6 10.7 92 0.7 SW 19 28 10 15 1026.5 1026.5 2.6
08/06:30am 12.0 8.0 10.6 91 0.7 SW 22 32 12 17 1026.3 1026.3 2.6
08/06:00am 12.1 8.5 10.7 91 0.7 SW 20 30 11 16 1026.0 1026.0 2.4
08/05:30am 12.2 8.2 10.4 89 0.9 WSW 22 33 12 18 1026.0 1026.0 2.4
08/05:00am 12.1 8.3 11.0 93 0.6 WSW 22 30 12 16 1025.7 1025.8 2.4
08/04:30am 12.0 8.6 11.1 94 0.5 SW 20 30 11 16 1025.5 1025.6 2.4
08/04:09am 12.0 7.8 11.2 95 0.4 SW 24 33 13 18 1025.5 1025.6 2.4
08/04:06am 12.0 7.8 11.2 95 0.4 SW 24 33 13 18 1025.4 1025.5 2.4
08/04:00am 12.0 7.8 11.2 95 0.4 SW 24 33 13 18 1025.4 1025.5 2.4
08/03:45am 12.2 8.1 11.4 95 0.4 WSW 24 32 13 17 1025.3 1025.4 2.2
08/03:38am 12.2 8.1 11.4 95 0.4 WSW 24 33 13 18 1025.3 1025.4 2.2
08/03:30am 12.1 7.2 11.3 95 0.4 WSW 28 37 15 20 1025.3 1025.4 2.2
08/03:06am 12.2 7.3 11.4 95 0.4 WSW 28 35 15 19 1025.3 1025.4 2.0
08/03:00am 12.2 8.1 11.4 95 0.4 W 24 32 13 17 1025.3 1025.4 2.0
08/02:57am 12.2 8.5 11.4 95 0.4 W 22 30 12 16 1025.2 1025.3 2.0
08/02:45am 12.2 8.8 11.4 95 0.4 WSW 20 30 11 16 1025.1 1025.2 2.0
08/02:39am 12.3 9.0 11.5 95 0.4 WSW 20 28 11 15 1025.2 1025.3 2.0
08/02:30am 12.3 8.6 11.5 95 0.4 WSW 22 32 12 17 1025.2 1025.3 1.8
08/02:24am 12.3 8.6 11.5 95 0.4 WSW 22 32 12 17 1025.3 1025.4 1.8
08/02:08am 12.3 8.6 11.5 95 0.4 WSW 22 32 12 17 1025.5 1025.6 1.8
08/02:00am 12.2 9.0 11.4 95 0.4 W 19 26 10 14 1025.4 1025.5 1.8
08/01:32am 12.0 7.1 11.2 95 0.4 WSW 28 39 15 21 1025.4 1025.5 1.8
08/01:30am 12.0 7.1 11.2 95 0.4 WSW 28 39 15 21 1025.4 1025.5 1.8
08/01:25am 12.1 7.2 11.3 95 0.4 WSW 28 35 15 19 1025.4 1025.5 1.8
08/01:07am 12.3 9.0 11.5 95 0.4 WSW 20 30 11 16 1025.7 1025.8 1.6
08/01:00am 12.3 8.3 11.7 96 0.3 WSW 24 32 13 17 1025.7 1025.8 1.6
08/12:59am 12.3 8.3 11.7 96 0.3 WSW 24 32 13 17 1025.7 1025.8 1.6
08/12:30am 12.2 8.8 11.4 95 0.4 W 20 26 11 14 1025.7 1025.8 1.6
08/12:21am 12.1 9.3 11.3 95 0.4 W 17 24 9 13 1025.7 1025.8 1.4
08/12:17am 12.1 8.9 11.3 95 0.4 WSW 19 26 10 14 1025.8 1025.9 1.2
08/12:00am 12.1 8.0 11.3 95 0.4 WSW 24 32 13 17 1026.1 1026.1 1.2
 
Date/Time
CST
Temp
°C
App
Temp
°C
Dew
Point
°C
Rel
Hum
%
Delta-T
°C
Wind Press
QNH
hPa
Press
MSL
hPa
Rain since
9am
mm
Dir  Spd
km/h
Gust
km/h
Spd
kts
Gust
kts
07/11:30pm 12.2 8.1 11.3 94 0.5 WSW 24 32 13 17 1026.4 1026.4 0.8
07/11:12pm 12.2 7.6 11.1 93 0.6 WSW 26 37 14 20 1026.4 1026.4 0.8
07/11:10pm 12.2 8.0 11.1 93 0.6 WSW 24 37 13 20 1026.3 1026.3 0.8
07/11:00pm 12.2 7.6 11.1 93 0.6 WSW 26 35 14 19 1026.4 1026.4 0.8
07/10:54pm 12.2 7.9 10.9 92 0.7 WSW 24 35 13 19 1026.4 1026.4 0.8
07/10:38pm 12.2 7.2 10.8 91 0.7 W 28 41 15 22 1026.3 1026.3 0.8
07/10:30pm 12.3 7.3 10.9 91 0.7 WSW 28 41 15 22 1026.3 1026.3 0.8
07/10:00pm 11.9 8.4 11.0 94 0.5 W 20 28 11 15 1026.6 1026.6 0.8
07/09:59pm 11.9 8.4 11.0 94 0.5 W 20 28 11 15 1026.6 1026.6 0.8
07/09:45pm 11.8 8.2 10.7 93 0.6 W 20 24 11 13 1026.6 1026.6 0.6
07/09:30pm 11.7 7.4 10.6 93 0.6 W 24 30 13 16 1026.5 1026.5 0.6
07/09:22pm 11.7 7.3 10.4 92 0.7 W 24 32 13 17 1026.5 1026.5 0.6
07/09:19pm 11.7 7.3 10.4 92 0.7 W 24 32 13 17 1026.4 1026.4 0.6
07/09:00pm 11.5 6.3 10.4 93 0.6 W 28 37 15 20 1026.6 1026.6 0.6
07/08:54pm 11.4 6.6 10.3 93 0.6 W 26 35 14 19 1026.5 1026.5 0.6
07/08:44pm 11.4 6.6 10.3 93 0.6 WSW 26 33 14 18 1026.6 1026.6 0.6
07/08:30pm 11.4 6.5 10.1 92 0.7 WSW 26 35 14 19 1026.6 1026.6 0.6
07/08:22pm 11.5 7.0 10.2 92 0.7 WSW 24 33 13 18 1026.7 1026.7 0.4
07/08:18pm 11.5 7.0 10.2 92 0.7 WSW 24 32 13 17 1026.6 1026.6 0.4
07/08:16pm 11.6 7.2 10.3 92 0.7 WSW 24 32 13 17 1026.7 1026.7 0.4
07/08:00pm 11.4 7.2 9.8 90 0.8 W 22 32 12 17 1026.6 1026.6 0.4
07/07:38pm 12.0 6.0 8.7 80 1.6 WSW 30 41 16 22 1026.9 1026.9 0.2
07/07:30pm 12.7 8.1 8.2 74 2.2 WSW 22 37 12 20 1026.6 1026.6 0.2
07/07:00pm 12.4 7.1 8.3 76 2.0 WSW 26 41 14 22 1026.2 1026.2 0.2
07/06:30pm 12.4 6.2 7.9 74 2.2 W 30 35 16 19 1026.3 1026.3 0.2
07/06:00pm 11.4 7.7 9.3 87 1.0 W 19 22 10 12 1026.4 1026.4 0.2
07/05:30pm 11.0 7.3 9.4 90 0.8 W 19 28 10 15 1026.2 1026.2 0.2
07/05:00pm 10.9 6.2 9.2 89 0.9 W 24 33 13 18 1026.2 1026.2 0.2
07/04:30pm 10.9 6.9 9.2 89 0.8 W 20 30 11 16 1026.4 1026.4 0.2
07/04:26pm 10.8 6.1 9.1 89 0.8 W 24 32 13 17 1026.4 1026.4 0.2
07/04:11pm 11.2 6.3 8.6 84 1.3 WSW 24 39 13 21 1026.8 1026.8 0.2
07/04:00pm 11.6 8.0 8.5 81 1.5 WSW 17 24 9 13 1026.6 1026.6 0.2
07/03:30pm 12.4 7.1 6.9 69 2.6 WSW 24 32 13 17 1026.4 1026.4 0.2
07/03:00pm 12.9 7.1 6.3 64 3.1 WSW 26 33 14 18 1026.6 1026.6 0.2
07/02:30pm 13.0 6.7 5.7 61 3.4 WSW 28 39 15 21 1026.6 1026.6 0.2
07/02:00pm 13.4 6.7 5.8 60 3.6 WSW 30 37 16 20 1026.6 1026.6 0.2
07/01:30pm 12.7 6.0 5.8 63 3.2 WSW 30 41 16 22 1026.8 1026.8 0.2
07/01:00pm 14.2 8.0 4.2 51 4.6 SW 26 35 14 19 1026.7 1026.7 0.2
07/12:30pm 12.9 6.4 6.5 65 3.0 WSW 30 41 16 22 1026.9 1026.9 0.2
07/12:00pm 12.6 6.7 5.8 63 3.2 SW 26 37 14 20 1027.0 1027.0 0.2
07/11:30am 12.6 5.5 5.3 61 3.4 SW 32 43 17 23 1027.4 1027.4 0.2
07/11:00am 12.6 5.7 6.4 66 3.0 SW 32 50 17 27 1027.5 1027.5 0.2
07/10:31am 12.5 6.3 6.3 66 2.9 SW 28 48 15 26 1027.2 1027.2 0.2
07/10:30am 12.6 6.8 6.4 66 2.9 SW 26 39 14 21 1027.2 1027.2 0.2
07/10:00am 12.9 7.0 5.8 62 3.3 SW 26 39 14 21 1026.9 1026.9 0.0
07/09:31am 12.3 5.3 5.9 65 3.0 SW 32 50 17 27 1026.9 1026.9 0.0
07/09:30am 12.2 4.9 5.4 63 3.1 SW 33 50 18 27 1026.9 1026.9 0.0
07/09:25am 12.1 5.0 5.3 63 3.2 SW 32 50 17 27 1026.9 1026.9 0.0
07/09:00am 11.3 5.0 5.8 69 2.5 SW 28 39 15 21 1026.8 1026.8 6.4
07/08:30am 10.1 5.5 6.3 77 1.8 SW 20 28 11 15 1026.7 1026.7 6.4
07/08:00am 9.0 4.4 5.7 80 1.5 WSW 19 30 10 16 1026.4 1026.4 6.4
07/07:30am 8.2 4.0 4.0 75 1.8 WSW 15 19 8 10 1026.0 1026.0 6.2
07/07:00am 7.5 2.9 3.6 76 1.7 WSW 17 26 9 14 1025.7 1025.8 6.2
07/06:30am 6.6 3.2 3.9 83 1.1 WSW 11 13 6 7 1025.4 1025.5 6.2
07/06:00am 6.2 2.4 3.7 84 1.1 W 13 15 7 8 1025.2 1025.3 6.2
07/05:30am 7.0 2.5 4.1 82 1.2 SSW 17 22 9 12 1025.1 1025.2 6.2
07/05:00am 7.8 2.9 4.2 78 1.6 SW 19 28 10 15 1024.9 1025.0 6.2
07/04:38am 7.9 1.3 4.3 78 1.6 SSW 28 46 15 25 1025.1 1025.2 6.2
07/04:30am 7.9 1.6 3.9 76 1.7 SSW 26 39 14 21 1024.9 1025.0 6.2
07/04:00am 8.1 2.6 2.1 66 2.5 SW 20 30 11 16 1024.4 1024.5 6.2
07/03:30am 8.2 1.7 2.4 67 2.4 SW 26 33 14 18 1024.3 1024.4 6.2
07/03:00am 8.1 2.7 2.6 68 2.3 SW 20 28 11 15 1024.2 1024.3 6.2
07/02:30am 7.7 1.5 2.2 68 2.3 SW 24 48 13 26 1024.2 1024.3 6.2
07/02:00am 7.8 2.4 2.7 70 2.1 SW 20 30 11 16 1024.3 1024.4 6.2
07/01:30am 7.3 2.2 3.9 79 1.5 SSW 20 28 11 15 1024.2 1024.3 6.2
07/01:00am 7.8 1.5 4.0 77 1.6 WSW 26 35 14 19 1023.9 1024.0 6.0
07/12:30am 7.5 0.0 3.7 77 1.6 SW 32 54 17 29 1023.7 1023.8 6.0
07/12:26am 7.5 0.8 3.7 77 1.6 WSW 28 54 15 29 1023.8 1023.9 6.0
07/12:00am 7.3 1.3 3.5 77 1.6 SW 24 32 13 17 1023.8 1023.9 6.0
 
Date/Time
CST
Temp
°C
App
Temp
°C
Dew
Point
°C
Rel
Hum
%
Delta-T
°C
Wind Press
QNH
hPa
Press
MSL
hPa
Rain since
9am
mm
Dir  Spd
km/h
Gust
km/h
Spd
kts
Gust
kts
06/11:30pm 7.2 -0.1 4.3 82 1.3 SW 32 48 17 26 1023.7 1023.8 6.0
06/11:25pm 6.9 1.8 4.0 82 1.2 WSW 20 46 11 25 1023.7 1023.8 6.0
06/11:00pm 5.7 1.4 3.4 85 1.0 W 15 17 8 9 1023.5 1023.6 5.8
06/10:30pm 6.3 1.1 2.4 76 1.6 SW 19 28 10 15 1023.6 1023.7 5.8
06/10:18pm 7.0 -1.7 2.3 72 1.9 WSW 37 57 20 31 1023.5 1023.6 5.8
06/10:15pm 6.9 -3.1 2.4 73 1.9 WSW 44 76 24 41 1023.5 1023.6 5.8
06/10:05pm 6.9 -2.2 3.9 81 1.3 SW 41 61 22 33 1024.3 1024.4 5.2
06/10:00pm 7.2 -2.4 4.2 81 1.3 SSW 44 56 24 30 1023.9 1024.0 5.0
06/09:50pm 8.7 1.2 3.5 70 2.2 SW 32 57 17 31 1023.3 1023.4 5.0
06/09:30pm 9.1 1.7 1.8 60 3.0 SW 30 46 16 25 1023.1 1023.2 5.0
06/09:00pm 9.6 2.6 2.2 60 3.1 SW 28 41 15 22 1023.0 1023.1 4.8
06/08:30pm 8.9 3.9 3.7 70 2.3 WSW 19 26 10 14 1022.6 1022.7 4.8
06/08:00pm 9.5 3.1 3.0 64 2.8 SW 26 33 14 18 1022.5 1022.6 4.8
06/07:30pm 8.8 3.6 2.6 65 2.6 WSW 19 30 10 16 1022.2 1022.3 4.8
06/07:00pm 9.4 3.0 3.4 66 2.6 SW 26 37 14 20 1022.0 1022.1 4.8
06/06:30pm 9.5 3.5 3.5 66 2.6 SW 24 33 13 18 1021.7 1021.8 4.8
06/06:00pm 9.8 3.2 4.4 69 2.4 SW 28 39 15 21 1021.3 1021.4 4.8
06/05:30pm 10.0 3.1 7.3 83 1.3 SW 33 48 18 26 1021.0 1021.1 4.8
06/05:18pm 10.3 4.3 7.0 80 1.6 SW 28 48 15 26 1020.7 1020.8 4.8
06/05:00pm 10.3 4.8 7.5 83 1.3 WSW 26 48 14 26 1020.3 1020.4 4.6
06/04:48pm 10.0 4.0 6.9 81 1.5 SW 28 50 15 27 1020.3 1020.4 4.6
06/04:30pm 11.9 6.7 8.9 82 1.5 SW 26 39 14 21 1019.8 1019.9 4.6
06/04:00pm 11.7 5.9 9.6 87 1.1 SW 30 48 16 26 1019.5 1019.6 4.6
06/03:55pm 11.8 6.5 9.9 88 1.0 WSW 28 48 15 26 1019.6 1019.7 4.6
06/03:38pm 11.6 8.0 10.5 93 0.6 SW 20 30 11 16 1019.3 1019.3 4.6
06/03:30pm 11.4 5.8 10.3 93 0.6 SW 30 48 16 26 1019.3 1019.3 4.6
06/03:26pm 11.3 5.3 10.2 93 0.6 SW 32 50 17 27 1019.3 1019.3 4.6
06/03:24pm 11.4 5.8 10.3 93 0.6 SW 30 50 16 27 1019.3 1019.3 4.6
06/03:21pm 11.4 6.2 10.3 93 0.6 WSW 28 50 15 27 1019.3 1019.3 4.6
06/03:18pm 11.6 7.3 10.7 94 0.5 WSW 24 33 13 18 1019.2 1019.2 4.6
06/03:00pm 11.4 5.3 10.5 94 0.5 SW 33 54 18 29 1019.1 1019.1 4.6
06/02:46pm 11.6 5.2 10.7 94 0.5 SW 35 54 19 29 1018.8 1018.8 4.6
06/02:30pm 12.1 5.8 11.2 94 0.5 SW 35 52 19 28 1018.6 1018.6 4.2
06/02:15pm 12.9 7.4 11.8 93 0.6 SW 32 50 17 27 1018.3 1018.3 3.8
06/02:00pm 13.7 8.7 12.3 91 0.8 W 30 39 16 21 1018.0 1018.0 2.6
06/01:58pm 13.7 8.7 12.3 91 0.8 W 30 39 16 21 1018.0 1018.0 2.6
06/01:51pm 13.9 8.4 11.9 88 1.1 W 32 46 17 25 1017.9 1017.9 2.2
06/01:30pm 15.7 10.0 11.3 75 2.4 W 32 43 17 23 1017.6 1017.6 0.4
06/01:00pm 16.4 11.3 11.8 74 2.5 W 30 41 16 22 1018.0 1018.0 0.4
06/12:30pm 16.0 11.8 13.5 85 1.4 WNW 28 41 15 22 1018.4 1018.4 0.4
06/12:16pm 16.2 10.6 11.4 73 2.6 WNW 32 50 17 27 1018.6 1018.6 0.4
06/12:00pm 16.6 12.3 12.2 75 2.4 W 26 37 14 20 1018.8 1018.8 0.4
06/11:30am 16.7 13.1 13.2 80 2.0 WNW 24 32 13 17 1019.3 1019.3 0.4
06/11:00am 15.5 11.7 12.3 81 1.8 WNW 24 39 13 21 1019.4 1019.4 0.4
06/10:30am 15.2 11.9 14.1 93 0.6 WNW 24 35 13 19 1019.4 1019.4 0.4
06/10:00am 15.1 13.0 14.6 97 0.3 WNW 19 26 10 14 1019.6 1019.7 0.4
06/09:59am 15.0 12.8 14.5 97 0.3 WNW 19 28 10 15 1019.6 1019.7 0.4
06/09:57am 14.7 12.2 14.2 97 0.3 WNW 20 28 11 15 1019.6 1019.7 0.4
06/09:30am 13.8 11.0 13.3 97 0.3 W 20 33 11 18 1019.9 1020.0 0.4

Other formats

Comma delimited format used in spreadsheet applications
http://www.bom.gov.au/fwo/IDS60801/IDS60801.94821.axf

JavaScript Object Notation format (JSON) in row-major order
http://www.bom.gov.au/fwo/IDS60801/IDS60801.94821.json

Data quality

Most of these data are generated automatically and are frequently updated. Quality checks on data are not normally performed. It is possible for incorrect values to appear. Refer to information at About Latest Weather Observations and please check the disclaimer before using these data.